Flight Track Log - Related Links

Times and Time Zones

All times are in EDT time to prevent confusion due to time zone crossing. See the ASQ6115 flight status page for this flight to view local times or setup timezone preferences in your user account.

Time Position Orientation Groundspeed Altitude Reporting Facility
EDT Latitude Longitude Course Direction KTS MPH feet Rate Location/Type
Fri 11:23:00 AM 35.8700 -87.0822 253° West  Level Estimated
Fri 11:24:00 AM 35.8992 -87.2049 286° West  Level FlightAware Approximate
Fri 11:25:00 AM 35.8345 -87.3047 255° West  Level Estimated
Fri 11:25:53 AM 36.1561 -87.0539 239° Southwest 273 314 10,000  Level Memphis Center
Fri 11:26:00 AM 35.8582 -87.4291 283° West  Level FlightAware Approximate
Fri 11:26:53 AM 36.1233 -87.1475 247° West 292 336 10,800  Level Memphis Center
Fri 11:27:00 AM 35.7926 -87.5279 256° West  Level Estimated
Fri 11:27:53 AM 36.0906 -87.2594 250° West 323 372 11,700  Level Memphis Center
Fri 11:28:00 AM 35.8139 -87.6529 282° West  Level FlightAware Approximate
Fri 11:28:53 AM 36.0686 -87.3758 257° West 347 399 12,700  Level Memphis Center
Fri 11:29:00 AM 35.7474 -87.7507 256° West  Level Estimated
Fri 11:29:53 AM 36.0461 -87.4894 256° West 347 399 14,000  Level Memphis Center
Fri 11:30:00 AM 35.6808 -87.8484 248° West  Level Estimated
Fri 11:30:53 AM 36.0217 -87.6058 255° West 347 399 15,100  Level Memphis Center
Fri 11:31:00 AM 35.6141 -87.9459 237° Southwest  Level Estimated
Fri 11:31:53 AM 35.9972 -87.7247 238° Southwest 357 411 16,100  Level Memphis Center
Fri 11:32:00 AM 35.6237 -88.0728 275° West  Level FlightAware Approximate
Fri 11:32:53 AM 35.9764 -87.8306 256° West 357 411 16,900  Level Memphis Center
Fri 11:33:00 AM 35.5561 -88.1693 244° Southwest  Level Estimated
Fri 11:33:53 AM 35.9517 -87.9492 256° West 362 417 17,900  Level Memphis Center
Fri 11:34:00 AM 35.9358 -87.9878 256° West  Level FlightAware Approximate
Fri 11:34:00 AM 35.4885 -88.2657 238° Southwest  Level Estimated
Fri 11:34:53 AM 35.9247 -88.0731 255° West 367 422 18,900  Level Memphis Center
Fri 11:35:00 AM 35.5007 -88.3920 277° West  Level FlightAware Approximate
Fri 11:35:53 AM 35.9019 -88.1889 256° West 367 422 19,900  Level Memphis Center
Fri 11:36:00 AM 35.4322 -88.4873 239° Southwest  Level Estimated
Fri 11:36:53 AM 35.8644 -88.3103 249° West 361 415 20,900  Level Memphis Center
Fri 11:37:53 AM 35.8097 -88.4167 238° Southwest 366 421 21,900 1,000 Climbing Memphis Center
Fri 11:38:53 AM 35.7531 -88.5281 238° Southwest 379 436 22,900 1,000 Climbing Memphis Center
Fri 11:39:53 AM 35.6983 -88.6392 239° Southwest 384 442 23,900 1,000 Climbing Memphis Center
Fri 11:40:53 AM 35.6436 -88.7503 239° Southwest 384 442 24,900 1,000 Climbing Memphis Center
Fri 11:41:00 AM 35.6201 -88.7765 238° Southwest  Level FlightAware Approximate
Fri 11:41:53 AM 35.5969 -88.8608 243° Southwest 384 442 25,900  Level Memphis Center
Fri 11:42:00 AM 35.5659 -88.8850 238° Southwest  Level FlightAware Approximate
Fri 11:42:53 AM 35.5650 -88.9789 252° West 369 425 27,000  Level Memphis Center
Fri 11:43:53 AM 35.5350 -89.0992 253° West 369 425 27,900 1,000 Climbing Memphis Center
Fri 11:44:00 AM 35.5286 -89.1227 253° West  Level FlightAware Approximate
Fri 11:44:53 AM 35.5047 -89.2144 252° West 369 425 29,000  Level Memphis Center
Fri 11:45:53 AM 35.4725 -89.3322 251° West 364 419 30,000 1,000 Climbing Memphis Center
Fri 11:46:53 AM 35.4419 -89.4525 253° West 369 425 31,000 1,000 Climbing Memphis Center
Fri 11:47:53 AM 35.4136 -89.5697 254° West 369 425 32,000 1,000 Climbing Memphis Center
Fri 11:48:53 AM 35.3811 -89.6872 251° West 369 425 33,000 550 Climbing Memphis Center
Fri 11:49:53 AM 35.3461 -89.8147 251° West 363 418 33,100 -700 Climbing Memphis Center
Fri 11:50:53 AM 35.3133 -89.9422 253° West 384 442 31,600 -1,400 Descending Memphis Center
Fri 11:51:53 AM 35.2761 -90.0747 251° West 401 461 30,300 -800 Descending Memphis Center
Fri 11:52:53 AM 35.2389 -90.2147 252° West 419 482 30,000 -150 Descending Memphis Center
Fri 11:53:53 AM 35.1825 -90.3419 242° Southwest 424 488 30,000  Level Memphis Center
Fri 11:54:53 AM 35.0950 -90.4511 226° Southwest 454 522 30,000  Level Memphis Center
Fri 11:55:53 AM 35.0050 -90.5600 225° Southwest 454 522 30,000  Level Memphis Center
Fri 11:56:53 AM 34.9172 -90.6661 225° Southwest 449 517 30,000  Level Memphis Center
Fri 11:57:53 AM 34.8253 -90.7719 223° Southwest 454 522 30,000  Level Memphis Center
Fri 11:58:53 AM 34.7350 -90.8778 224° Southwest 454 522 30,000  Level Memphis Center
Fri 11:59:53 AM 34.6450 -90.9833 224° Southwest 454 522 30,000  Level Memphis Center
Fri 12:00:53 PM 34.5544 -91.0883 224° Southwest 454 522 30,000  Level Memphis Center
Fri 12:01:53 PM 34.4664 -91.1936 225° Southwest 454 522 30,000  Level Memphis Center
Fri 12:02:53 PM 34.3736 -91.3008 224° Southwest 454 522 30,000  Level Memphis Center
Fri 12:03:53 PM 34.2831 -91.4056 224° Southwest 454 522 30,000  Level Memphis Center
Fri 12:04:53 PM 34.2031 -91.4997 224° Southwest 454 522 30,000  Level Memphis Center
Fri 12:06:25 PM 34.0628 -91.6678 225° Southwest 453 521 30,000  Level Fort Worth Center
Fri 12:07:24 PM 33.9694 -91.7739 223° Southwest 458 527 30,000  Level Fort Worth Center
Fri 12:08:25 PM 33.8800 -91.8772 224° Southwest 458 527 30,000  Level Fort Worth Center
Fri 12:09:25 PM 33.7867 -91.9831 223° Southwest 458 527 30,000  Level Fort Worth Center
Fri 12:10:24 PM 33.6972 -92.0861 224° Southwest 453 521 30,000  Level Fort Worth Center
Fri 12:11:24 PM 33.6056 -92.1889 223° Southwest 453 521 30,000  Level Fort Worth Center
Fri 12:12:25 PM 33.4986 -92.2775 215° Southwest 458 527 30,000  Level Fort Worth Center
Fri 12:13:24 PM 33.3794 -92.3242 198° South 456 525 30,000  Level Fort Worth Center
Fri 12:14:24 PM 33.2514 -92.3564 192° South 461 531 30,000  Level Fort Worth Center
Fri 12:15:25 PM 33.1233 -92.3858 191° South 460 529 30,000  Level Fort Worth Center
Fri 12:16:24 PM 32.9931 -92.4181 192° South 473 544 30,000  Level Fort Worth Center
Fri 12:17:25 PM 32.8650 -92.4525 193° South 473 544 30,000  Level Fort Worth Center
Fri 12:18:25 PM 32.7411 -92.4839 192° South 473 544 30,000  Level Fort Worth Center
Fri 12:20:41 PM 32.4567 -92.5550 192° South 471 542 30,000  Level Houston Center
Fri 12:21:44 PM 32.3283 -92.5886 192° South 471 542 30,000  Level Houston Center
Fri 12:22:46 PM 32.2000 -92.6208 192° South 470 541 30,000  Level Houston Center
Fri 12:23:48 PM 32.0472 -92.6578 192° South 469 540 30,000  Level Houston Center
Fri 12:24:50 PM 31.9311 -92.7211 205° Southwest 465 535 30,000  Level Houston Center
Fri 12:25:53 PM 31.8314 -92.8142 218° Southwest 459 528 30,000  Level Houston Center
Fri 12:26:54 PM 31.7328 -92.9103 220° Southwest 459 528 30,000  Level Houston Center
Fri 12:27:56 PM 31.6356 -93.0053 220° Southwest 457 526 30,000  Level Houston Center
Fri 12:28:59 PM 31.5364 -93.0978 218° Southwest 456 525 30,000  Level Houston Center
Fri 12:30:01 PM 31.4186 -93.2131 220° Southwest 455 524 30,000  Level Houston Center
Fri 12:31:03 PM 31.3214 -93.3050 219° Southwest 454 522 30,000  Level Houston Center
Fri 12:32:05 PM 31.2239 -93.3958 219° Southwest 453 521 30,000  Level Houston Center
Fri 12:33:07 PM 31.1264 -93.4889 219° Southwest 454 522 30,000  Level Houston Center
Fri 12:34:09 PM 31.0294 -93.5822 220° Southwest 453 521 30,000 -768 Level Houston Center
Fri 12:35:12 PM 30.9117 -93.6931 219° Southwest 455 524 28,400 -1,776 Descending Houston Center
Fri 12:36:14 PM 30.8100 -93.7897 219° Southwest 470 541 26,300 -2,177 Descending Houston Center
Fri 12:37:16 PM 30.7083 -93.8853 219° Southwest 472 543 23,900 -2,371 Descending Houston Center
Fri 12:38:18 PM 30.6100 -93.9789 219° Southwest 463 533 21,400 -2,419 Descending Houston Center
Fri 12:39:20 PM 30.5150 -94.0678 219° Southwest 449 517 18,900 -2,661 Descending Houston Center
Fri 12:40:22 PM 30.4056 -94.1694 219° Southwest 431 496 15,900 -2,703 Descending Houston Center
Fri 12:40:51 PM 30.3617 -94.2097 218° Southwest 415 478 14,800 -2,032 Descending Houston Center
Fri 12:41:24 PM 30.3181 -94.2525 220° Southwest 417 480 13,800 -1,625 Descending Houston Center
Fri 12:42:27 PM 30.2344 -94.3286 218° Southwest 395 455 12,200 -1,104 Descending Houston Center
Fri 12:43:29 PM 30.1794 -94.4172 234° Southwest 347 399 11,500 -1,100 Descending Houston Center
Fri 12:44:27 PM 30.1381 -94.5222 246° West 313 360 10,000 -1,452 Descending Houston Center
Fri 12:44:31 PM 30.1383 -94.5217 60° Northeast 322 371 10,000 -1,180 Level Houston Center
Fri 12:45:28 PM 30.1050 -94.6136 247° West 302 348 8,800 -1,161 Descending Houston Center
Fri 12:45:33 PM 30.1064 -94.6108 60° Northeast 305 351 8,800 -1,065 Level Houston Center
Fri 12:46:30 PM 30.0719 -94.7047 247° West 311 358 7,700 -968 Descending Houston Center
Fri 12:46:35 PM 30.0739 -94.7025 45° Northeast 308 354 7,800 -984 Climbing Houston Center
Fri 12:47:31 PM 30.0381 -94.7911 245° Southwest 295 339 6,700 -968 Descending Houston Center
Fri 12:47:37 PM 30.0400 -94.7900 26° Northeast 301 346 6,800 -618 Climbing Houston Center
Fri 12:48:39 PM 30.0017 -94.8942 247° West 295 339 6,000 -667 Descending Houston Center
Fri 12:49:34 PM 29.9925 -94.9756 263° West 280 322 5,500 -581 Descending Houston Center
Fri 12:49:41 PM 29.9939 -94.9831 282° West 286 329 5,400 -1,161 Descending Houston Center
Fri 12:50:36 PM 29.9936 -95.0525 270° West 231 266 4,300 -1,143 Descending Houston Center
Fri 12:50:44 PM 29.9933 -95.0592 267° West 246 283 4,200 -885 Descending Houston Center
Fri 12:51:37 PM 29.9942 -95.1272 271° West 214 246 3,400 -774 Descending Houston Center
Fri 12:51:46 PM 29.9933 -95.1286 235° Southwest 224 258 3,400 -984 Level Houston Center
Fri 12:52:38 PM 29.9939 -95.1925 271° West 196 226 2,400 -968 Descending Houston Center
Fri 12:52:48 PM 29.9936 -95.1917 111° Southeast 212 244 2,400 -968 Level Houston Center
Fri 12:53:40 PM 29.9928 -95.2481 269° West 152 175 1,400 -1,065 Descending Houston Center
Fri 12:53:50 PM 29.9933 -95.2586 273° West 189 217 1,300 -833 Descending Houston Center
Fri 12:54:52 PM 29.9933 -95.3061 270° West 163 188 400 -484 Descending Houston Center
Fri 12:55:54 PM 29.9944 -95.3547 272° West 161 185 300 -97 Descending Houston Center

Login

Don't have an account? Register now (free) for customized features, flight alerts, and more!